Terminal Aerodrome Forecast
Issued by NWS

Home | Current Version | Previous Version | Text Only | Print | Product List | Glossary On
Versions: 1 2 3 4 5 6 7 8 9 10 11 12 13
000
FTUS45 KRIW 292322
TAFCOD
TAF
KCOD 292322Z 3000/3024 VRB12G20KT P6SM VCTS SCT080CB BKN150
     FM300500 22007KT P6SM SCT150
     FM301200 25008KT P6SM VCSH SCT090 BKN100
     FM301600 03011KT P6SM VCSH SCT080 BKN100
     FM302000 VRB09G17KT P6SM VCTS SCT050CB BKN070
      AMD LTD TO CLD VIS AND WIND=

USA.gov is the U.S. government's official web portal to all federal, state and local government web resources and services.